LA8QT Lodingen NO current weather conditions

sailwx.info

Wind from 290 at 6 knots

Air temperature 1.1° C
Dewpoint -4.5° C

Last reported at 2017-Jan-23 15:37 UTC.
Time now 2017-Jan-23 17:01 UTC

Location: N 68°28' E 016°04'.
View on Google Maps.

See reports from other nearby stations

  
Tides and Currents Weather Stations Pressure Air Temp Water Temp Dewpoint Dewpoint Depression Visibility Wind Speed Wind Dir Waves Ship Positions
date/time (UTC)wind fromknots sea level pressurealtimeterstation pressurevisibilityair tempwater tempwave heightnotes
2017-Jan-23 15:37 290 6 1.1
2017-Jan-23 15:22 325 7 1.1
2017-Jan-23 15:07 290 6 1.1
2017-Jan-23 14:52 312 7 1.1
2017-Jan-23 14:38 325 6 1.1
2017-Jan-23 14:23 320 7 1.1
2017-Jan-23 14:07 327 9 1.1
2017-Jan-23 13:52 324 9 1.1
2017-Jan-23 13:37 351 6 1.1
2017-Jan-23 13:22 317 11 1.1
2017-Jan-23 13:07 330 8 1.1
2017-Jan-23 12:52 321 9 1.1
2017-Jan-23 12:37 325 6 1.1
2017-Jan-23 12:22 340 5 1.1
2017-Jan-23 12:07 352 1 1.1
2017-Jan-23 11:52 359 11 1.7
2017-Jan-23 11:37 013 12 1.7
2017-Jan-23 11:22 329 9 1.7
2017-Jan-23 11:07 011 10 1.7
2017-Jan-23 10:52 002 13 2.2
2017-Jan-23 10:37 348 12 1.7
2017-Jan-23 10:22 358 9 1.7
2017-Jan-23 10:07 358 9 1.7
2017-Jan-23 09:52 017 6 1.7
2017-Jan-23 09:37 358 4 1.7
2017-Jan-23 09:22 325 3 1.7
2017-Jan-23 09:07 321 3 1.7
2017-Jan-23 08:52 359 3 1.7
2017-Jan-23 08:37 271 2 1.7
2017-Jan-23 08:22 241 1.7
2017-Jan-23 08:07 237 1.7
2017-Jan-23 07:52 237 1.7
2017-Jan-23 07:37 237 1.7
2017-Jan-23 07:22 237 1.7
2017-Jan-23 07:07 237 1.7
2017-Jan-23 06:52 237 0 1.7
2017-Jan-23 06:37 137 1.7
2017-Jan-23 06:22 137 2.2
2017-Jan-23 06:07 137 2.2
2017-Jan-23 05:52 137 2.2
2017-Jan-23 05:37 137 0 2.2
2017-Jan-23 05:22 130 1 2.2
2017-Jan-23 05:07 130 2.2
2017-Jan-23 04:52 148 2.2
2017-Jan-23 04:37 146 1 2.2
2017-Jan-23 04:22 130 3 2.2
2017-Jan-23 04:07 131 6 2.8
2017-Jan-23 03:52 134 1 2.2
2017-Jan-23 03:37 181 4 2.8
2017-Jan-23 03:22 169 2 2.8
2017-Jan-23 03:07 188 2 2.8
2017-Jan-23 02:52 194 2 2.8
2017-Jan-23 02:36 185 2 2.8
2017-Jan-23 02:21 185 1 2.8
2017-Jan-23 02:06 199 1 2.8
2017-Jan-23 01:52 203 1 2.8
2017-Jan-23 01:36 214 5 3.3
2017-Jan-23 01:22 189 4 3.3
2017-Jan-23 01:06 189 2 3.3
2017-Jan-23 00:51 189 4 3.3
2017-Jan-23 00:36 202 3 3.3
2017-Jan-23 00:21 103 2.8
2017-Jan-23 00:06 103 2.8
2017-Jan-22 23:51 103 1 3.3
2017-Jan-22 23:36 181 2.8
2017-Jan-22 23:21 187 3 2.8
2017-Jan-22 23:06 162 2 2.8
2017-Jan-22 22:51 206 5 2.8
2017-Jan-22 22:36 215 6 2.8
2017-Jan-22 22:21 188 4 2.8
2017-Jan-22 22:06 207 4 2.2
2017-Jan-22 21:51 190 3 2.2
2017-Jan-22 21:36 200 2 2.2
2017-Jan-22 21:21 205 3 2.2
2017-Jan-22 21:06 177 5 2.8
2017-Jan-22 20:51 127 6 2.8
2017-Jan-22 20:37 142 2 2.2
2017-Jan-22 20:21 210 2 2.2
2017-Jan-22 20:06 172 1 2.2
2017-Jan-22 19:51 202 1 2.2
2017-Jan-22 19:36 201 2 2.2
2017-Jan-22 19:21 186 0 1.7
2017-Jan-22 19:06 214 2 1.1
2017-Jan-22 18:51 178 0 0.6
2017-Jan-22 18:36 178 2 0.6
2017-Jan-22 18:21 178 1 0.6
2017-Jan-22 18:06 168 1 0.6
2017-Jan-22 17:51 176 0.6
2017-Jan-22 17:36 175 1 0.6
2017-Jan-22 17:21 171 0.6
2017-Jan-22 17:06 171 -0.0
2017-Jan-22 16:51 171 1 -0.0
2017-Jan-22 16:36 347 -0.6
2017-Jan-22 16:21 347 -0.6
2017-Jan-22 16:06 348 -1.1
2017-Jan-22 15:51 348 -1.1
2017-Jan-22 15:36 348 -1.1
2017-Jan-22 15:21 348 -1.1
2017-Jan-22 15:06 348 -1.1
2017-Jan-22 14:51 347 -1.1
2017-Jan-22 14:36 347 -1.1
2017-Jan-22 14:21 347 1 -1.1
2017-Jan-22 14:06 348 -1.1
2017-Jan-22 13:51 348 -1.1
2017-Jan-22 13:36 348 -1.1
2017-Jan-22 13:21 348 -1.1
2017-Jan-22 13:06 348 -1.1
2017-Jan-22 12:51 347 0 -1.1
2017-Jan-22 12:35 347 -1.1
2017-Jan-22 12:20 347 0 -1.1
2017-Jan-22 12:06 347 2 -1.1
2017-Jan-22 11:50 349 3 -1.1
2017-Jan-22 11:35 337 4 -1.1
2017-Jan-22 11:20 336 3 -1.1
2017-Jan-22 11:06 334 5 -1.1
2017-Jan-22 10:50 327 4 -1.7
2017-Jan-22 10:35 327 4 -1.7
2017-Jan-22 10:05 345 6 -1.7
2017-Jan-22 09:50 348 6 -1.7
2017-Jan-22 09:35 360 6 -1.7
2017-Jan-22 09:20 347 7 -1.7
2017-Jan-22 09:05 346 7 -1.7
2017-Jan-22 08:50 017 6 -1.7
2017-Jan-22 08:35 358 7 -1.7
2017-Jan-22 08:20 329 7 -1.7
2017-Jan-22 08:05 335 9 -1.7
2017-Jan-22 07:50 338 8 -1.7
2017-Jan-22 07:35 332 7 -1.7
2017-Jan-22 07:20 329 6 -1.7
2017-Jan-22 07:05 350 6 -1.7
2017-Jan-22 06:50 360 6 -1.7
2017-Jan-22 06:35 341 6 -1.7
2017-Jan-22 06:20 360 8 -1.7
2017-Jan-22 06:05 351 6 -1.7
2017-Jan-22 05:50 352 5 -1.7
2017-Jan-22 05:35 006 4 -1.7
2017-Jan-22 05:20 339 3 -1.7
2017-Jan-22 05:05 325 3 -1.1
2017-Jan-22 04:50 325 2 -1.1
2017-Jan-22 04:35 310 2 -1.1
2017-Jan-22 04:20 310 2 -1.1
2017-Jan-22 04:05 309 1 -1.1
2017-Jan-22 03:50 309 2 -1.1
2017-Jan-22 03:35 310 2 -1.1
2017-Jan-22 03:20 310 2 -1.1
2017-Jan-22 03:05 307 2 -1.1
2017-Jan-22 02:50 319 -1.7
2017-Jan-22 02:35 319 1 -1.1
2017-Jan-22 02:20 320 -1.1
2017-Jan-22 02:05 319 3 -1.1
2017-Jan-22 01:50 325 4 -1.1
2017-Jan-22 01:35 333 4 -1.1
2017-Jan-22 01:20 321 4 -1.1
2017-Jan-22 01:05 333 2 -1.7
2017-Jan-22 00:50 330 1 -1.7
2017-Jan-22 00:35 329 3 -1.7
2017-Jan-22 00:20 331 2 -1.7
2017-Jan-22 00:05 331 -1.7
2017-Jan-21 23:50 331 1 -1.7
2017-Jan-21 23:35 331 2 -1.7
2017-Jan-21 23:20 331 3 -1.7
2017-Jan-21 23:05 339 3 -1.1
2017-Jan-21 22:50 329 4 -1.1
2017-Jan-21 22:35 345 3 -2.2
2017-Jan-21 22:20 345 1 -2.2
2017-Jan-21 22:05 345 2 -1.7
2017-Jan-21 21:50 345 2 -2.2
2017-Jan-21 21:35 344 -1.7
2017-Jan-21 21:20 344 -1.1
2017-Jan-21 21:05 344 -1.1
2017-Jan-21 20:50 345 -1.7
2017-Jan-21 20:35 345 -1.1
2017-Jan-21 20:20 345 -1.1
2017-Jan-21 20:05 345 -1.7
2017-Jan-21 19:50 344 -1.7
2017-Jan-21 19:35 344 -1.7
2017-Jan-21 19:20 345 -1.7
2017-Jan-21 19:05 345 -1.7
2017-Jan-21 18:50 345 -1.7
2017-Jan-21 18:35 345 -1.7
2017-Jan-21 18:20 345 -1.7
2017-Jan-21 18:05 344 -1.7
2017-Jan-21 17:50 344 -1.7
2017-Jan-21 17:35 345 -1.7
2017-Jan-21 17:20 345 -1.7
2017-Jan-21 17:05 345 -1.7